Time;durP1;ratioP1;P1;durP2;ratioP2;P2;SDS_P1;SDS_P2;PMS_P1;PMS_P2;Temp;Humidity;BMP_temperature;BMP_pressure;BME280_temperature;BME280_humidity;BME280_pressure;Samples;Min_cycle;Max_cycle;Signal;HPM_P1;HPM_P2
2021/10/06 00:09:06;;;;;;;2.38;0.63;;;10.90;99.90;;;;;;20674867;28;20053;-44
2021/10/06 00:19:08;;;;;;;1.80;0.90;;;10.80;99.90;;;;;;20687323;28;20041;-44
2021/10/06 00:29:09;;;;;;;5.28;1.80;;;10.90;99.90;;;;;;20784626;28;20033;-45
2021/10/06 00:39:10;;;;;;;1.33;0.63;;;11.00;99.90;;;;;;20780578;28;20076;-46
2021/10/06 00:49:16;;;;;;;2.05;0.60;;;11.00;99.90;;;;;;20799076;28;20037;-45
2021/10/06 00:59:17;;;;;;;1.55;0.70;;;11.00;99.90;;;;;;20785076;28;20048;-46
2021/10/06 01:09:18;;;;;;;4.18;0.68;;;11.10;99.90;;;;;;20707370;28;20046;-46
2021/10/06 01:19:25;;;;;;;3.60;0.60;;;11.10;99.90;;;;;;20690491;28;20593;-45
2021/10/06 01:29:28;;;;;;;2.53;0.20;;;11.10;99.90;;;;;;20702253;28;20068;-45
2021/10/06 01:39:29;;;;;;;1.20;0.32;;;11.00;99.90;;;;;;20778113;28;20040;-45
2021/10/06 01:49:30;;;;;;;0.25;0.10;;;10.80;99.90;;;;;;20811123;28;20048;-45
2021/10/06 01:59:32;;;;;;;0.80;0.20;;;10.70;99.90;;;;;;20782164;28;20044;-44
2021/10/06 02:09:34;;;;;;;0.30;0.10;;;10.60;99.90;;;;;;20793737;28;20053;-44
2021/10/06 02:19:36;;;;;;;0.43;0.10;;;10.60;99.90;;;;;;20707285;28;20413;-44
2021/10/06 02:29:37;;;;;;;0.70;0.30;;;10.60;99.90;;;;;;20688015;28;20053;-44
2021/10/06 02:39:39;;;;;;;3.60;0.20;;;10.70;99.90;;;;;;20695370;28;20042;-44
2021/10/06 02:49:40;;;;;;;1.25;0.20;;;10.70;99.90;;;;;;20764879;28;20726;-46
2021/10/06 02:59:41;;;;;;;0.30;0.00;;;10.70;99.90;;;;;;20778105;28;20060;-45
2021/10/06 03:09:42;;;;;;;0.63;0.10;;;10.60;99.90;;;;;;20783043;28;20394;-46
2021/10/06 03:19:43;;;;;;;0.55;0.10;;;10.50;99.90;;;;;;20772882;28;20045;-46
2021/10/06 03:29:45;;;;;;;0.93;0.10;;;10.50;99.90;;;;;;20712411;28;20053;-46
2021/10/06 03:39:46;;;;;;;2.83;0.20;;;10.50;99.90;;;;;;20696162;28;20033;-46
2021/10/06 03:49:47;;;;;;;4.80;0.40;;;10.60;99.90;;;;;;20682646;28;20056;-45
2021/10/06 03:59:48;;;;;;;0.75;0.10;;;10.50;99.90;;;;;;20733828;28;20052;-46
2021/10/06 04:09:49;;;;;;;3.40;0.40;;;10.60;99.90;;;;;;20814763;28;21639;-45
2021/10/06 04:19:52;;;;;;;1.23;0.32;;;10.60;99.90;;;;;;20813060;28;20128;-45
2021/10/06 04:29:53;;;;;;;0.55;0.20;;;10.50;99.90;;;;;;20817326;28;20060;-46
2021/10/06 04:39:54;;;;;;;0.85;0.20;;;10.50;99.90;;;;;;20791310;28;20033;-45
2021/10/06 04:49:55;;;;;;;0.77;0.20;;;10.50;99.90;;;;;;20773663;28;20042;-45
2021/10/06 04:59:56;;;;;;;1.23;0.40;;;10.50;99.90;;;;;;20772214;28;20044;-45
2021/10/06 05:09:57;;;;;;;0.70;0.20;;;10.50;99.90;;;;;;20788358;28;20053;-46
2021/10/06 05:19:58;;;;;;;3.75;0.28;;;10.60;99.90;;;;;;20806987;28;20041;-46
2021/10/06 05:30:00;;;;;;;2.92;0.40;;;10.80;99.90;;;;;;20810873;28;20057;-46
2021/10/06 05:40:03;;;;;;;3.83;0.70;;;10.90;99.90;;;;;;20806853;28;20083;-46
2021/10/06 05:50:05;;;;;;;4.97;0.43;;;11.00;99.90;;;;;;20786835;28;20053;-45
2021/10/06 06:00:07;;;;;;;1.20;0.40;;;11.10;99.90;;;;;;20753859;28;20034;-46
2021/10/06 06:10:10;;;;;;;1.38;0.35;;;11.20;99.90;;;;;;20776272;28;20053;-45
2021/10/06 06:20:14;;;;;;;2.05;0.43;;;11.40;99.90;;;;;;20787388;28;20037;-46
2021/10/06 06:30:15;;;;;;;0.55;0.10;;;11.40;99.90;;;;;;20802122;28;21036;-46
2021/10/06 06:40:16;;;;;;;0.13;0.00;;;11.10;99.90;;;;;;20787347;28;20080;-46
2021/10/06 06:50:19;;;;;;;0.60;0.15;;;10.50;99.90;;;;;;20777890;28;20045;-46
2021/10/06 07:00:20;;;;;;;2.00;0.30;;;10.50;99.90;;;;;;20801837;28;20176;-47
2021/10/06 07:10:21;;;;;;;3.58;0.50;;;10.70;99.90;;;;;;20758076;28;20072;-46
2021/10/06 07:20:23;;;;;;;3.08;0.47;;;11.10;99.90;;;;;;20755365;28;20037;-46
2021/10/06 07:30:24;;;;;;;1.70;0.32;;;11.30;99.90;;;;;;20774108;28;20045;-47
2021/10/06 07:40:26;;;;;;;1.95;0.40;;;11.30;99.90;;;;;;20801078;28;20033;-46
2021/10/06 07:50:27;;;;;;;1.33;0.45;;;11.50;99.90;;;;;;20790513;28;20051;-46
2021/10/06 08:00:29;;;;;;;0.50;0.10;;;11.70;99.90;;;;;;20784682;28;20042;-45
2021/10/06 08:10:30;;;;;;;1.38;0.40;;;11.90;99.90;;;;;;20784800;28;20526;-45
2021/10/06 08:20:34;;;;;;;2.13;0.60;;;12.00;99.90;;;;;;20775763;28;20046;-45
2021/10/06 08:30:36;;;;;;;2.05;0.13;;;12.10;99.90;;;;;;20784597;28;20041;-45
2021/10/06 08:40:38;;;;;;;0.65;0.30;;;11.80;99.90;;;;;;20778111;28;20040;-44
2021/10/06 08:50:40;;;;;;;1.98;0.32;;;11.90;99.90;;;;;;20798622;28;20042;-45
2021/10/06 09:00:59;;;;;;;11.63;1.55;;;12.00;99.90;;;;;;20814173;28;20046;-44
2021/10/06 09:11:03;;;;;;;0.88;0.20;;;12.20;99.90;;;;;;20837657;28;20065;-45
2021/10/06 09:21:08;;;;;;;0.98;0.30;;;12.30;99.90;;;;;;20824230;28;20053;-44
2021/10/06 09:31:13;;;;;;;1.88;0.35;;;12.30;99.90;;;;;;20772225;28;20069;-45
2021/10/06 09:41:45;;;;;;;1.10;0.28;;;12.60;99.90;;;;;;20780328;28;20033;-46
2021/10/06 09:51:47;;;;;;;2.13;0.40;;;12.60;99.90;;;;;;20785142;28;20041;-46
2021/10/06 10:01:49;;;;;;;8.05;1.85;;;12.80;99.90;;;;;;20805700;28;20076;-45
2021/10/06 10:11:51;;;;;;;7.10;0.55;;;13.40;99.90;;;;;;20813360;28;20578;-46
2021/10/06 10:21:55;;;;;;;2.60;0.50;;;13.50;99.90;;;;;;20804512;28;20033;-45
2021/10/06 10:32:02;;;;;;;5.72;1.30;;;13.60;99.90;;;;;;20793585;28;20125;-45
2021/10/06 10:42:05;;;;;;;1.73;0.40;;;13.60;99.90;;;;;;20760942;28;20226;-45
2021/10/06 10:52:06;;;;;;;1.00;0.30;;;13.80;99.90;;;;;;20762886;28;20033;-45
2021/10/06 11:02:21;;;;;;;0.52;0.20;;;13.70;99.90;;;;;;20768989;28;20044;-46
2021/10/06 11:12:22;;;;;;;0.93;0.20;;;13.20;99.90;;;;;;20788190;28;20045;-46
2021/10/06 11:22:23;;;;;;;1.52;0.55;;;12.50;99.90;;;;;;20806121;28;20496;-46
2021/10/06 11:32:25;;;;;;;2.45;0.40;;;12.80;99.90;;;;;;20761830;28;20045;-45
2021/10/06 11:42:33;;;;;;;3.63;0.30;;;12.90;99.90;;;;;;20814741;28;20475;-45
2021/10/06 11:52:34;;;;;;;1.33;0.32;;;13.80;99.90;;;;;;20781465;28;20156;-45
2021/10/06 12:02:35;;;;;;;1.30;0.50;;;15.50;99.90;;;;;;20756205;28;20053;-45
2021/10/06 12:12:37;;;;;;;4.03;1.10;;;15.70;99.90;;;;;;20767881;28;20491;-44
2021/10/06 12:22:40;;;;;;;7.90;0.55;;;16.30;99.90;;;;;;20805254;28;20071;-44
2021/10/06 12:32:44;;;;;;;4.10;0.30;;;15.80;99.90;;;;;;20807618;28;20054;-46
2021/10/06 12:43:24;;;;;;;1.98;1.02;;;14.50;99.90;;;;;;20813532;28;20025;-46
2021/10/06 12:53:27;;;;;;;0.85;0.30;;;14.00;99.90;;;;;;20804308;28;20053;-45
2021/10/06 13:03:29;;;;;;;6.30;0.40;;;13.90;99.90;;;;;;20784943;28;20045;-45
2021/10/06 13:13:30;;;;;;;3.88;0.50;;;13.90;99.90;;;;;;20782510;28;20037;-45
2021/10/06 13:23:34;;;;;;;2.08;0.50;;;14.40;99.90;;;;;;20779257;28;20045;-45
2021/10/06 13:33:36;;;;;;;0.57;0.22;;;15.60;99.90;;;;;;20789709;28;20041;-45
2021/10/06 13:43:38;;;;;;;2.60;0.70;;;14.80;99.90;;;;;;20812706;28;20473;-44
2021/10/06 13:53:39;;;;;;;4.43;0.50;;;14.60;99.90;;;;;;20804835;28;20057;-44
2021/10/06 14:03:40;;;;;;;2.08;0.30;;;14.90;99.90;;;;;;20803776;28;20036;-44
2021/10/06 14:13:42;;;;;;;1.13;0.10;;;15.60;99.90;;;;;;20788447;28;20056;-44
2021/10/06 14:23:43;;;;;;;3.00;0.68;;;15.00;99.90;;;;;;20771852;28;20045;-44
2021/10/06 14:33:44;;;;;;;2.90;0.20;;;15.50;99.90;;;;;;20786571;28;20048;-44
2021/10/06 14:43:46;;;;;;;0.73;0.20;;;15.40;99.90;;;;;;20801036;28;20041;-44
2021/10/06 14:53:48;;;;;;;0.55;0.20;;;15.30;99.90;;;;;;20792388;28;20387;-44
2021/10/06 15:03:49;;;;;;;8.85;0.38;;;15.30;99.90;;;;;;20812822;28;20334;-44
2021/10/06 15:13:52;;;;;;;0.30;0.15;;;15.00;99.90;;;;;;20782382;28;20673;-44
2021/10/06 15:23:53;;;;;;;1.38;0.47;;;15.30;99.90;;;;;;20750279;28;20329;-44
2021/10/06 15:33:55;;;;;;;6.05;0.73;;;15.20;99.90;;;;;;20674875;28;20045;-44
2021/10/06 15:43:56;;;;;;;0.70;0.30;;;14.90;99.90;;;;;;20686292;28;20159;-44
2021/10/06 15:53:57;;;;;;;0.35;0.20;;;14.60;99.90;;;;;;20720701;28;20053;-44
2021/10/06 16:03:59;;;;;;;1.10;0.28;;;14.40;99.90;;;;;;20812434;28;20089;-44
2021/10/06 16:14:00;;;;;;;1.27;0.43;;;14.20;99.90;;;;;;20797726;28;20071;-44
2021/10/06 16:24:01;;;;;;;1.55;0.50;;;14.20;99.90;;;;;;20781612;28;20479;-44
2021/10/06 16:34:03;;;;;;;2.10;0.52;;;14.30;99.90;;;;;;20746738;28;20072;-44
2021/10/06 16:44:04;;;;;;;3.05;0.57;;;14.20;99.90;;;;;;20696422;28;20080;-44
2021/10/06 16:54:05;;;;;;;1.63;0.22;;;14.20;99.90;;;;;;20677056;28;20384;-44
2021/10/06 17:04:07;;;;;;;1.50;0.50;;;14.10;99.90;;;;;;20735835;28;20050;-44
2021/10/06 17:14:09;;;;;;;2.92;0.32;;;14.10;99.90;;;;;;20792127;28;20046;-44
2021/10/06 17:24:10;;;;;;;1.95;1.05;;;14.00;99.90;;;;;;20784470;28;20550;-44
2021/10/06 17:34:11;;;;;;;3.88;0.82;;;13.90;99.90;;;;;;20775561;28;20352;-44
2021/10/06 17:44:13;;;;;;;2.83;0.57;;;13.80;99.90;;;;;;20772987;28;20163;-44
2021/10/06 17:54:14;;;;;;;4.15;0.80;;;13.70;99.90;;;;;;20692466;28;20072;-44
2021/10/06 18:04:15;;;;;;;1.80;0.70;;;13.80;99.90;;;;;;20676548;28;20484;-43
2021/10/06 18:14:16;;;;;;;1.92;0.50;;;13.70;99.90;;;;;;20703248;28;20040;-43
2021/10/06 18:24:18;;;;;;;3.22;0.40;;;13.80;99.90;;;;;;20776823;28;20041;-44
2021/10/06 18:34:21;;;;;;;1.33;0.50;;;13.80;99.90;;;;;;20770367;28;20128;-44
2021/10/06 18:44:22;;;;;;;7.93;1.52;;;13.70;99.90;;;;;;20784713;28;20151;-44
2021/10/06 18:54:23;;;;;;;3.33;0.90;;;13.70;99.90;;;;;;20773101;28;20494;-44
2021/10/06 19:04:24;;;;;;;2.58;0.82;;;13.70;99.90;;;;;;20693222;28;20058;-44
2021/10/06 19:14:26;;;;;;;1.90;0.50;;;13.70;99.90;;;;;;20689928;28;20049;-44
2021/10/06 19:24:27;;;;;;;3.40;0.98;;;13.70;99.90;;;;;;20686146;28;20994;-44
2021/10/06 19:34:29;;;;;;;2.03;0.75;;;13.70;99.90;;;;;;20774393;28;20041;-44
2021/10/06 19:44:32;;;;;;;0.77;0.32;;;13.60;99.90;;;;;;20782384;28;20071;-44
2021/10/06 19:54:33;;;;;;;2.83;0.95;;;13.50;99.90;;;;;;20776868;28;20042;-44
2021/10/06 20:04:34;;;;;;;2.65;0.57;;;13.50;99.90;;;;;;20747735;28;20046;-44
2021/10/06 20:14:35;;;;;;;1.48;0.52;;;13.40;99.90;;;;;;20689780;28;20415;-44
2021/10/06 20:24:36;;;;;;;1.70;0.90;;;13.30;99.90;;;;;;20692311;28;20220;-44
2021/10/06 20:35:04;;;;;;;5.75;0.60;;;13.30;99.90;;;;;;20688240;28;20037;-44
2021/10/06 20:45:06;;;;;;;3.90;0.77;;;13.10;99.90;;;;;;20770026;28;20048;-44
2021/10/06 20:55:08;;;;;;;2.55;1.27;;;12.80;99.90;;;;;;20805121;28;20045;-43
2021/10/06 21:05:11;;;;;;;0.82;0.40;;;12.60;99.90;;;;;;20791356;28;20073;-43
2021/10/06 21:15:12;;;;;;;0.95;0.40;;;12.40;99.90;;;;;;20778008;28;20439;-43
2021/10/06 21:25:14;;;;;;;1.70;0.60;;;12.30;99.90;;;;;;20700609;28;20477;-44
2021/10/06 21:35:15;;;;;;;2.45;0.73;;;12.10;99.90;;;;;;20703648;28;20522;-43
2021/10/06 21:45:23;;;;;;;2.88;0.77;;;11.90;99.90;;;;;;20704117;28;20517;-43
2021/10/06 21:55:24;;;;;;;2.50;1.00;;;11.80;99.90;;;;;;20766328;28;20044;-44
2021/10/06 22:05:26;;;;;;;8.57;0.98;;;11.60;99.90;;;;;;20755382;28;20504;-44
2021/10/06 22:15:31;;;;;;;5.95;1.17;;;11.50;99.90;;;;;;20804704;28;20033;-43
2021/10/06 22:25:32;;;;;;;5.03;1.15;;;11.40;99.90;;;;;;20788789;28;20072;-43
2021/10/06 22:35:34;;;;;;;3.70;0.93;;;11.40;99.90;;;;;;20724230;28;20141;-44
2021/10/06 22:45:35;;;;;;;4.03;1.10;;;11.40;99.90;;;;;;20695957;28;20052;-43
2021/10/06 22:55:36;;;;;;;2.67;0.70;;;11.40;99.90;;;;;;20710113;28;20406;-43
2021/10/06 23:05:37;;;;;;;2.55;0.80;;;11.30;99.90;;;;;;20752501;28;20057;-44
2021/10/06 23:15:38;;;;;;;2.47;0.98;;;11.30;99.90;;;;;;20770388;28;20045;-44
2021/10/06 23:25:39;;;;;;;3.65;0.73;;;11.20;99.90;;;;;;20787394;28;20121;-43
2021/10/06 23:35:41;;;;;;;11.70;1.17;;;11.10;99.90;;;;;;20788556;28;20295;-43
2021/10/06 23:45:45;;;;;;;5.30;1.30;;;11.00;99.90;;;;;;20731433;28;20767;-44
2021/10/06 23:55:46;;;;;;;5.57;0.93;;;11.00;99.90;;;;;;20698085;28;20426;-44
